sensor_id;sensor_type;location;lat;lon;timestamp;P1;durP1;ratioP1;P2;durP2;ratioP2
53775;SDS011;44276;49.534;6.378;2022-08-19T00:01:57;18.52;;;13.10;;
53775;SDS011;44276;49.534;6.378;2022-08-19T00:04:27;17.30;;;11.35;;
53775;SDS011;44276;49.534;6.378;2022-08-19T00:07:01;22.40;;;12.63;;
53775;SDS011;44276;49.534;6.378;2022-08-19T00:09:30;17.27;;;12.73;;
53775;SDS011;44276;49.534;6.378;2022-08-19T00:11:59;16.27;;;12.13;;
53775;SDS011;44276;49.534;6.378;2022-08-19T00:14:28;17.90;;;12.35;;
53775;SDS011;44276;49.534;6.378;2022-08-19T00:16:58;16.88;;;11.38;;
53775;SDS011;44276;49.534;6.378;2022-08-19T00:19:28;17.15;;;12.55;;
53775;SDS011;44276;49.534;6.378;2022-08-19T00:21:58;20.08;;;13.57;;
53775;SDS011;44276;49.534;6.378;2022-08-19T00:24:26;15.55;;;11.93;;
53775;SDS011;44276;49.534;6.378;2022-08-19T00:26:55;16.70;;;11.45;;
53775;SDS011;44276;49.534;6.378;2022-08-19T00:29:44;16.77;;;12.68;;
53775;SDS011;44276;49.534;6.378;2022-08-19T00:32:18;15.18;;;10.73;;
53775;SDS011;44276;49.534;6.378;2022-08-19T00:34:49;17.35;;;13.05;;
53775;SDS011;44276;49.534;6.378;2022-08-19T00:37:21;20.48;;;12.52;;
53775;SDS011;44276;49.534;6.378;2022-08-19T00:39:53;17.70;;;11.98;;
53775;SDS011;44276;49.534;6.378;2022-08-19T00:42:21;15.40;;;11.15;;
53775;SDS011;44276;49.534;6.378;2022-08-19T00:44:51;17.40;;;12.13;;
53775;SDS011;44276;49.534;6.378;2022-08-19T00:47:19;25.63;;;12.38;;
53775;SDS011;44276;49.534;6.378;2022-08-19T00:49:50;17.90;;;12.57;;
53775;SDS011;44276;49.534;6.378;2022-08-19T00:52:23;18.17;;;12.27;;
53775;SDS011;44276;49.534;6.378;2022-08-19T00:54:57;16.80;;;12.27;;
53775;SDS011;44276;49.534;6.378;2022-08-19T00:57:27;21.15;;;11.77;;
53775;SDS011;44276;49.534;6.378;2022-08-19T01:00:04;15.18;;;12.05;;
53775;SDS011;44276;49.534;6.378;2022-08-19T01:02:36;17.65;;;11.05;;
53775;SDS011;44276;49.534;6.378;2022-08-19T01:05:08;19.98;;;11.45;;
53775;SDS011;44276;49.534;6.378;2022-08-19T01:07:41;15.85;;;11.50;;
53775;SDS011;44276;49.534;6.378;2022-08-19T01:10:11;16.30;;;11.35;;
53775;SDS011;44276;49.534;6.378;2022-08-19T01:12:42;18.13;;;13.18;;
53775;SDS011;44276;49.534;6.378;2022-08-19T01:15:13;15.60;;;10.70;;
53775;SDS011;44276;49.534;6.378;2022-08-19T01:17:45;16.92;;;12.52;;
53775;SDS011;44276;49.534;6.378;2022-08-19T01:20:17;19.55;;;12.57;;
53775;SDS011;44276;49.534;6.378;2022-08-19T01:22:50;14.68;;;12.13;;
53775;SDS011;44276;49.534;6.378;2022-08-19T01:25:21;15.95;;;11.07;;
53775;SDS011;44276;49.534;6.378;2022-08-19T01:27:54;21.25;;;11.85;;
53775;SDS011;44276;49.534;6.378;2022-08-19T01:30:35;17.70;;;11.77;;
53775;SDS011;44276;49.534;6.378;2022-08-19T01:33:09;17.52;;;12.38;;
53775;SDS011;44276;49.534;6.378;2022-08-19T01:35:37;19.40;;;12.93;;
53775;SDS011;44276;49.534;6.378;2022-08-19T01:38:08;16.98;;;13.13;;
53775;SDS011;44276;49.534;6.378;2022-08-19T01:40:49;17.10;;;12.02;;
53775;SDS011;44276;49.534;6.378;2022-08-19T01:43:18;18.27;;;12.05;;
53775;SDS011;44276;49.534;6.378;2022-08-19T01:45:46;19.92;;;12.05;;
53775;SDS011;44276;49.534;6.378;2022-08-19T01:48:15;17.83;;;12.10;;
53775;SDS011;44276;49.534;6.378;2022-08-19T01:50:43;17.63;;;13.20;;
53775;SDS011;44276;49.534;6.378;2022-08-19T01:53:12;14.70;;;11.18;;
53775;SDS011;44276;49.534;6.378;2022-08-19T01:55:41;19.38;;;11.73;;
53775;SDS011;44276;49.534;6.378;2022-08-19T01:58:15;16.75;;;11.98;;
53775;SDS011;44276;49.534;6.378;2022-08-19T02:00:48;15.95;;;12.77;;
53775;SDS011;44276;49.534;6.378;2022-08-19T02:03:16;18.77;;;13.00;;
53775;SDS011;44276;49.534;6.378;2022-08-19T02:05:44;18.33;;;11.85;;
53775;SDS011;44276;49.534;6.378;2022-08-19T02:08:14;17.25;;;12.82;;
53775;SDS011;44276;49.534;6.378;2022-08-19T02:10:43;15.65;;;12.00;;
53775;SDS011;44276;49.534;6.378;2022-08-19T02:13:11;20.05;;;12.43;;
53775;SDS011;44276;49.534;6.378;2022-08-19T02:15:46;19.30;;;13.13;;
53775;SDS011;44276;49.534;6.378;2022-08-19T02:18:14;15.93;;;11.23;;
53775;SDS011;44276;49.534;6.378;2022-08-19T02:20:43;17.90;;;11.88;;
53775;SDS011;44276;49.534;6.378;2022-08-19T02:23:15;17.25;;;12.05;;
53775;SDS011;44276;49.534;6.378;2022-08-19T02:25:45;15.18;;;11.13;;
53775;SDS011;44276;49.534;6.378;2022-08-19T02:28:15;14.85;;;11.93;;
53775;SDS011;44276;49.534;6.378;2022-08-19T02:30:44;16.98;;;12.77;;
53775;SDS011;44276;49.534;6.378;2022-08-19T02:33:14;15.57;;;11.55;;
53775;SDS011;44276;49.534;6.378;2022-08-19T02:35:43;16.33;;;11.98;;
53775;SDS011;44276;49.534;6.378;2022-08-19T02:38:14;15.35;;;12.15;;
53775;SDS011;44276;49.534;6.378;2022-08-19T02:40:53;20.80;;;13.20;;
53775;SDS011;44276;49.534;6.378;2022-08-19T02:43:25;14.85;;;11.63;;
53775;SDS011;44276;49.534;6.378;2022-08-19T02:46:00;16.58;;;12.70;;
53775;SDS011;44276;49.534;6.378;2022-08-19T02:48:29;17.70;;;12.50;;
53775;SDS011;44276;49.534;6.378;2022-08-19T02:50:59;20.95;;;13.05;;
53775;SDS011;44276;49.534;6.378;2022-08-19T02:53:28;17.35;;;11.82;;
53775;SDS011;44276;49.534;6.378;2022-08-19T02:55:57;18.67;;;13.07;;
53775;SDS011;44276;49.534;6.378;2022-08-19T02:58:25;15.52;;;12.32;;
53775;SDS011;44276;49.534;6.378;2022-08-19T03:00:54;17.48;;;12.27;;
53775;SDS011;44276;49.534;6.378;2022-08-19T03:03:24;16.77;;;12.65;;
53775;SDS011;44276;49.534;6.378;2022-08-19T03:06:02;16.20;;;11.73;;
53775;SDS011;44276;49.534;6.378;2022-08-19T03:08:38;19.25;;;12.18;;
53775;SDS011;44276;49.534;6.378;2022-08-19T03:11:11;13.85;;;11.73;;
53775;SDS011;44276;49.534;6.378;2022-08-19T03:13:41;15.07;;;11.52;;
53775;SDS011;44276;49.534;6.378;2022-08-19T03:16:10;15.80;;;12.68;;
53775;SDS011;44276;49.534;6.378;2022-08-19T03:18:39;15.05;;;11.20;;
53775;SDS011;44276;49.534;6.378;2022-08-19T03:21:08;18.75;;;11.77;;
53775;SDS011;44276;49.534;6.378;2022-08-19T03:23:39;14.23;;;10.88;;
53775;SDS011;44276;49.534;6.378;2022-08-19T03:26:07;15.55;;;11.82;;
53775;SDS011;44276;49.534;6.378;2022-08-19T03:28:42;19.05;;;12.32;;
53775;SDS011;44276;49.534;6.378;2022-08-19T03:31:23;15.90;;;11.65;;
53775;SDS011;44276;49.534;6.378;2022-08-19T03:34:14;20.70;;;12.20;;
53775;SDS011;44276;49.534;6.378;2022-08-19T03:36:45;20.25;;;12.38;;
53775;SDS011;44276;49.534;6.378;2022-08-19T03:39:16;17.48;;;13.10;;
53775;SDS011;44276;49.534;6.378;2022-08-19T03:41:44;15.50;;;11.00;;
53775;SDS011;44276;49.534;6.378;2022-08-19T03:44:35;15.10;;;11.48;;
53775;SDS011;44276;49.534;6.378;2022-08-19T03:47:04;16.70;;;11.52;;
53775;SDS011;44276;49.534;6.378;2022-08-19T03:49:33;19.00;;;12.27;;
53775;SDS011;44276;49.534;6.378;2022-08-19T03:52:03;16.88;;;13.43;;
53775;SDS011;44276;49.534;6.378;2022-08-19T03:54:35;16.30;;;12.63;;
53775;SDS011;44276;49.534;6.378;2022-08-19T03:57:04;14.50;;;11.07;;
53775;SDS011;44276;49.534;6.378;2022-08-19T03:59:36;14.73;;;11.48;;
53775;SDS011;44276;49.534;6.378;2022-08-19T04:02:06;15.05;;;11.20;;
53775;SDS011;44276;49.534;6.378;2022-08-19T04:04:38;16.77;;;10.50;;
53775;SDS011;44276;49.534;6.378;2022-08-19T04:07:11;17.25;;;11.10;;
53775;SDS011;44276;49.534;6.378;2022-08-19T04:09:43;16.30;;;12.13;;
53775;SDS011;44276;49.534;6.378;2022-08-19T04:12:11;16.15;;;12.70;;
53775;SDS011;44276;49.534;6.378;2022-08-19T04:14:41;16.52;;;12.95;;
53775;SDS011;44276;49.534;6.378;2022-08-19T04:17:09;20.52;;;12.23;;
53775;SDS011;44276;49.534;6.378;2022-08-19T04:19:38;20.45;;;12.45;;
53775;SDS011;44276;49.534;6.378;2022-08-19T04:22:07;18.45;;;11.50;;
53775;SDS011;44276;49.534;6.378;2022-08-19T04:24:37;13.40;;;10.65;;
53775;SDS011;44276;49.534;6.378;2022-08-19T04:27:06;15.52;;;11.40;;
53775;SDS011;44276;49.534;6.378;2022-08-19T04:29:35;15.60;;;11.70;;
53775;SDS011;44276;49.534;6.378;2022-08-19T04:32:05;16.30;;;12.07;;
53775;SDS011;44276;49.534;6.378;2022-08-19T04:34:35;14.40;;;11.00;;
53775;SDS011;44276;49.534;6.378;2022-08-19T04:37:25;21.63;;;13.18;;
53775;SDS011;44276;49.534;6.378;2022-08-19T04:40:01;17.70;;;12.27;;
53775;SDS011;44276;49.534;6.378;2022-08-19T04:42:52;14.23;;;11.13;;
53775;SDS011;44276;49.534;6.378;2022-08-19T04:45:20;18.45;;;12.18;;
53775;SDS011;44276;49.534;6.378;2022-08-19T04:47:49;18.05;;;11.25;;
53775;SDS011;44276;49.534;6.378;2022-08-19T04:50:44;15.60;;;11.13;;
53775;SDS011;44276;49.534;6.378;2022-08-19T04:53:12;17.02;;;10.98;;
53775;SDS011;44276;49.534;6.378;2022-08-19T04:55:41;19.50;;;12.50;;
53775;SDS011;44276;49.534;6.378;2022-08-19T04:58:11;17.48;;;11.75;;
53775;SDS011;44276;49.534;6.378;2022-08-19T05:00:40;16.33;;;11.55;;
53775;SDS011;44276;49.534;6.378;2022-08-19T05:03:09;15.63;;;11.38;;
53775;SDS011;44276;49.534;6.378;2022-08-19T05:05:38;13.15;;;10.20;;
53775;SDS011;44276;49.534;6.378;2022-08-19T05:08:10;13.48;;;9.73;;
53775;SDS011;44276;49.534;6.378;2022-08-19T05:10:41;16.70;;;11.40;;
53775;SDS011;44276;49.534;6.378;2022-08-19T05:13:09;12.52;;;9.80;;
53775;SDS011;44276;49.534;6.378;2022-08-19T05:15:39;12.48;;;8.57;;
53775;SDS011;44276;49.534;6.378;2022-08-19T05:18:07;12.45;;;9.98;;
53775;SDS011;44276;49.534;6.378;2022-08-19T05:20:59;13.70;;;8.32;;
53775;SDS011;44276;49.534;6.378;2022-08-19T05:23:50;12.23;;;8.43;;
53775;SDS011;44276;49.534;6.378;2022-08-19T05:26:19;13.80;;;8.48;;
53775;SDS011;44276;49.534;6.378;2022-08-19T05:28:48;20.70;;;11.23;;
53775;SDS011;44276;49.534;6.378;2022-08-19T05:31:20;15.70;;;9.50;;
53775;SDS011;44276;49.534;6.378;2022-08-19T05:33:49;12.25;;;7.70;;
53775;SDS011;44276;49.534;6.378;2022-08-19T05:36:17;12.00;;;8.73;;
53775;SDS011;44276;49.534;6.378;2022-08-19T05:38:46;16.05;;;8.43;;
53775;SDS011;44276;49.534;6.378;2022-08-19T05:41:16;15.75;;;9.00;;
53775;SDS011;44276;49.534;6.378;2022-08-19T05:43:44;16.75;;;8.82;;
53775;SDS011;44276;49.534;6.378;2022-08-19T05:46:17;15.85;;;6.80;;
53775;SDS011;44276;49.534;6.378;2022-08-19T05:48:53;16.40;;;7.38;;
53775;SDS011;44276;49.534;6.378;2022-08-19T05:51:22;12.02;;;8.07;;
53775;SDS011;44276;49.534;6.378;2022-08-19T05:53:54;11.98;;;7.82;;
53775;SDS011;44276;49.534;6.378;2022-08-19T05:56:22;10.70;;;7.93;;
53775;SDS011;44276;49.534;6.378;2022-08-19T05:58:51;11.50;;;7.47;;
53775;SDS011;44276;49.534;6.378;2022-08-19T06:01:21;13.55;;;7.88;;
53775;SDS011;44276;49.534;6.378;2022-08-19T06:03:49;9.07;;;6.72;;
53775;SDS011;44276;49.534;6.378;2022-08-19T06:06:18;15.73;;;7.55;;
53775;SDS011;44276;49.534;6.378;2022-08-19T06:08:47;10.35;;;7.10;;
53775;SDS011;44276;49.534;6.378;2022-08-19T06:11:19;8.93;;;7.20;;
53775;SDS011;44276;49.534;6.378;2022-08-19T06:13:52;11.38;;;7.82;;
53775;SDS011;44276;49.534;6.378;2022-08-19T06:16:27;10.90;;;8.80;;
53775;SDS011;44276;49.534;6.378;2022-08-19T06:18:56;14.15;;;8.15;;
53775;SDS011;44276;49.534;6.378;2022-08-19T06:21:27;10.38;;;6.72;;
53775;SDS011;44276;49.534;6.378;2022-08-19T06:23:57;10.02;;;6.63;;
53775;SDS011;44276;49.534;6.378;2022-08-19T06:26:26;9.27;;;6.18;;
53775;SDS011;44276;49.534;6.378;2022-08-19T06:28:54;8.43;;;6.05;;
53775;SDS011;44276;49.534;6.378;2022-08-19T06:31:24;10.20;;;7.22;;
53775;SDS011;44276;49.534;6.378;2022-08-19T06:34:00;7.38;;;5.95;;
53775;SDS011;44276;49.534;6.378;2022-08-19T06:36:31;9.20;;;6.65;;
53775;SDS011;44276;49.534;6.378;2022-08-19T06:39:04;9.68;;;6.30;;
53775;SDS011;44276;49.534;6.378;2022-08-19T06:41:38;7.97;;;6.28;;
53775;SDS011;44276;49.534;6.378;2022-08-19T06:44:17;13.30;;;7.07;;
53775;SDS011;44276;49.534;6.378;2022-08-19T06:46:48;12.48;;;7.20;;
53775;SDS011;44276;49.534;6.378;2022-08-19T06:49:20;8.00;;;6.47;;
53775;SDS011;44276;49.534;6.378;2022-08-19T06:51:49;6.30;;;5.63;;
53775;SDS011;44276;49.534;6.378;2022-08-19T06:54:18;9.38;;;6.70;;
53775;SDS011;44276;49.534;6.378;2022-08-19T06:56:46;10.57;;;6.68;;
53775;SDS011;44276;49.534;6.378;2022-08-19T06:59:15;10.35;;;7.28;;
53775;SDS011;44276;49.534;6.378;2022-08-19T07:01:48;6.03;;;5.32;;
53775;SDS011;44276;49.534;6.378;2022-08-19T07:04:20;10.88;;;7.40;;
53775;SDS011;44276;49.534;6.378;2022-08-19T07:06:52;10.18;;;7.47;;
53775;SDS011;44276;49.534;6.378;2022-08-19T07:09:45;9.38;;;7.82;;
53775;SDS011;44276;49.534;6.378;2022-08-19T07:12:25;9.55;;;7.78;;
53775;SDS011;44276;49.534;6.378;2022-08-19T07:14:56;8.98;;;6.82;;
53775;SDS011;44276;49.534;6.378;2022-08-19T07:17:27;9.60;;;8.13;;
53775;SDS011;44276;49.534;6.378;2022-08-19T07:19:56;10.95;;;8.80;;
53775;SDS011;44276;49.534;6.378;2022-08-19T07:22:32;12.75;;;8.15;;
53775;SDS011;44276;49.534;6.378;2022-08-19T07:25:01;10.32;;;7.93;;
53775;SDS011;44276;49.534;6.378;2022-08-19T07:27:31;9.10;;;7.03;;
53775;SDS011;44276;49.534;6.378;2022-08-19T07:30:00;9.90;;;8.38;;
53775;SDS011;44276;49.534;6.378;2022-08-19T07:32:29;10.52;;;7.40;;
53775;SDS011;44276;49.534;6.378;2022-08-19T07:34:58;10.10;;;8.98;;
53775;SDS011;44276;49.534;6.378;2022-08-19T07:37:29;10.40;;;8.15;;
53775;SDS011;44276;49.534;6.378;2022-08-19T07:39:59;11.30;;;8.05;;
53775;SDS011;44276;49.534;6.378;2022-08-19T07:42:27;13.60;;;9.18;;
53775;SDS011;44276;49.534;6.378;2022-08-19T07:44:56;9.00;;;8.10;;
53775;SDS011;44276;49.534;6.378;2022-08-19T07:47:25;12.10;;;8.30;;
53775;SDS011;44276;49.534;6.378;2022-08-19T07:50:16;10.63;;;7.35;;
53775;SDS011;44276;49.534;6.378;2022-08-19T07:52:46;12.60;;;9.30;;
53775;SDS011;44276;49.534;6.378;2022-08-19T07:55:17;9.88;;;8.25;;
53775;SDS011;44276;49.534;6.378;2022-08-19T07:58:09;10.20;;;7.63;;
53775;SDS011;44276;49.534;6.378;2022-08-19T08:00:40;11.55;;;10.35;;
53775;SDS011;44276;49.534;6.378;2022-08-19T08:03:09;11.82;;;9.75;;
53775;SDS011;44276;49.534;6.378;2022-08-19T08:05:39;9.88;;;8.88;;
53775;SDS011;44276;49.534;6.378;2022-08-19T08:08:25;10.35;;;8.88;;
53775;SDS011;44276;49.534;6.378;2022-08-19T08:11:14;12.10;;;9.38;;
53775;SDS011;44276;49.534;6.378;2022-08-19T08:13:46;10.00;;;8.57;;
53775;SDS011;44276;49.534;6.378;2022-08-19T08:16:30;12.55;;;9.90;;
53775;SDS011;44276;49.534;6.378;2022-08-19T08:19:05;12.80;;;9.43;;
53775;SDS011;44276;49.534;6.378;2022-08-19T08:21:52;13.60;;;8.10;;
53775;SDS011;44276;49.534;6.378;2022-08-19T08:24:22;10.43;;;9.32;;
53775;SDS011;44276;49.534;6.378;2022-08-19T08:26:54;10.23;;;9.07;;
53775;SDS011;44276;49.534;6.378;2022-08-19T08:29:24;16.73;;;10.00;;
53775;SDS011;44276;49.534;6.378;2022-08-19T08:32:00;8.93;;;7.82;;
53775;SDS011;44276;49.534;6.378;2022-08-19T08:34:40;8.85;;;7.88;;
53775;SDS011;44276;49.534;6.378;2022-08-19T08:37:09;10.20;;;9.10;;
53775;SDS011;44276;49.534;6.378;2022-08-19T08:39:41;11.02;;;9.93;;
53775;SDS011;44276;49.534;6.378;2022-08-19T08:42:12;11.10;;;9.73;;
53775;SDS011;44276;49.534;6.378;2022-08-19T08:44:53;12.82;;;8.77;;
53775;SDS011;44276;49.534;6.378;2022-08-19T08:47:29;11.33;;;7.80;;
53775;SDS011;44276;49.534;6.378;2022-08-19T08:50:07;9.23;;;8.00;;
53775;SDS011;44276;49.534;6.378;2022-08-19T08:52:53;9.38;;;8.48;;
53775;SDS011;44276;49.534;6.378;2022-08-19T08:55:26;11.07;;;9.35;;
53775;SDS011;44276;49.534;6.378;2022-08-19T08:58:03;10.32;;;9.02;;
53775;SDS011;44276;49.534;6.378;2022-08-19T09:00:37;9.18;;;8.25;;
53775;SDS011;44276;49.534;6.378;2022-08-19T09:03:09;9.80;;;8.82;;
53775;SDS011;44276;49.534;6.378;2022-08-19T09:05:50;9.57;;;8.57;;
53775;SDS011;44276;49.534;6.378;2022-08-19T09:08:33;13.40;;;9.15;;
53775;SDS011;44276;49.534;6.378;2022-08-19T09:11:14;12.52;;;10.65;;
53775;SDS011;44276;49.534;6.378;2022-08-19T09:14:09;9.63;;;8.68;;
53775;SDS011;44276;49.534;6.378;2022-08-19T09:17:14;12.65;;;8.23;;
53775;SDS011;44276;49.534;6.378;2022-08-19T09:19:51;9.05;;;7.32;;
53775;SDS011;44276;49.534;6.378;2022-08-19T09:22:22;9.02;;;7.53;;
53775;SDS011;44276;49.534;6.378;2022-08-19T09:24:54;10.25;;;8.30;;
53775;SDS011;44276;49.534;6.378;2022-08-19T09:27:24;11.05;;;9.40;;
53775;SDS011;44276;49.534;6.378;2022-08-19T09:30:09;9.10;;;7.05;;
53775;SDS011;44276;49.534;6.378;2022-08-19T09:32:42;8.77;;;7.38;;
53775;SDS011;44276;49.534;6.378;2022-08-19T09:35:12;8.80;;;7.32;;
53775;SDS011;44276;49.534;6.378;2022-08-19T09:37:41;7.65;;;6.85;;
53775;SDS011;44276;49.534;6.378;2022-08-19T09:40:12;7.75;;;6.57;;
53775;SDS011;44276;49.534;6.378;2022-08-19T09:42:41;9.85;;;7.78;;
53775;SDS011;44276;49.534;6.378;2022-08-19T09:45:16;9.38;;;5.32;;
53775;SDS011;44276;49.534;6.378;2022-08-19T09:47:48;7.97;;;6.28;;
53775;SDS011;44276;49.534;6.378;2022-08-19T09:50:21;6.25;;;5.65;;
53775;SDS011;44276;49.534;6.378;2022-08-19T09:52:51;8.27;;;6.22;;
53775;SDS011;44276;49.534;6.378;2022-08-19T09:55:25;6.93;;;5.85;;
53775;SDS011;44276;49.534;6.378;2022-08-19T09:57:58;6.63;;;4.82;;
53775;SDS011;44276;49.534;6.378;2022-08-19T10:00:28;7.38;;;6.28;;
53775;SDS011;44276;49.534;6.378;2022-08-19T10:02:57;6.13;;;5.55;;
53775;SDS011;44276;49.534;6.378;2022-08-19T10:05:26;8.50;;;4.90;;
53775;SDS011;44276;49.534;6.378;2022-08-19T10:08:14;8.02;;;5.80;;
53775;SDS011;44276;49.534;6.378;2022-08-19T10:10:47;7.05;;;6.32;;
53775;SDS011;44276;49.534;6.378;2022-08-19T10:13:17;6.95;;;6.22;;
53775;SDS011;44276;49.534;6.378;2022-08-19T10:15:51;9.63;;;7.70;;
53775;SDS011;44276;49.534;6.378;2022-08-19T10:18:22;12.23;;;6.35;;
53775;SDS011;44276;49.534;6.378;2022-08-19T10:20:59;11.18;;;6.97;;
53775;SDS011;44276;49.534;6.378;2022-08-19T10:23:37;7.32;;;6.30;;
53775;SDS011;44276;49.534;6.378;2022-08-19T10:26:13;9.82;;;6.55;;
53775;SDS011;44276;49.534;6.378;2022-08-19T10:28:44;6.55;;;5.90;;
53775;SDS011;44276;49.534;6.378;2022-08-19T10:31:13;7.22;;;5.45;;
53775;SDS011;44276;49.534;6.378;2022-08-19T10:34:07;4.30;;;3.75;;
53775;SDS011;44276;49.534;6.378;2022-08-19T10:36:52;4.93;;;4.28;;
53775;SDS011;44276;49.534;6.378;2022-08-19T10:39:26;5.78;;;5.18;;
53775;SDS011;44276;49.534;6.378;2022-08-19T10:42:09;10.43;;;5.15;;
53775;SDS011;44276;49.534;6.378;2022-08-19T10:44:39;6.22;;;4.78;;
53775;SDS011;44276;49.534;6.378;2022-08-19T10:47:08;6.95;;;5.68;;
53775;SDS011;44276;49.534;6.378;2022-08-19T10:49:51;8.40;;;5.95;;
53775;SDS011;44276;49.534;6.378;2022-08-19T10:52:38;6.78;;;5.50;;
53775;SDS011;44276;49.534;6.378;2022-08-19T10:55:16;7.30;;;5.82;;
53775;SDS011;44276;49.534;6.378;2022-08-19T10:58:06;6.15;;;5.30;;
53775;SDS011;44276;49.534;6.378;2022-08-19T11:00:39;5.75;;;5.18;;
53775;SDS011;44276;49.534;6.378;2022-08-19T11:03:09;6.93;;;4.22;;
53775;SDS011;44276;49.534;6.378;2022-08-19T11:05:37;5.97;;;4.57;;
53775;SDS011;44276;49.534;6.378;2022-08-19T11:08:07;7.28;;;5.15;;
53775;SDS011;44276;49.534;6.378;2022-08-19T11:10:49;5.82;;;5.22;;
53775;SDS011;44276;49.534;6.378;2022-08-19T11:15:58;5.45;;;4.63;;
53775;SDS011;44276;49.534;6.378;2022-08-19T11:18:33;6.93;;;4.40;;
53775;SDS011;44276;49.534;6.378;2022-08-19T11:21:05;6.30;;;4.40;;
53775;SDS011;44276;49.534;6.378;2022-08-19T11:23:39;7.53;;;3.70;;
53775;SDS011;44276;49.534;6.378;2022-08-19T11:26:08;7.90;;;4.53;;
53775;SDS011;44276;49.534;6.378;2022-08-19T11:28:38;6.43;;;4.20;;
53775;SDS011;44276;49.534;6.378;2022-08-19T11:31:09;5.03;;;3.75;;
53775;SDS011;44276;49.534;6.378;2022-08-19T11:33:39;3.33;;;3.00;;
53775;SDS011;44276;49.534;6.378;2022-08-19T11:36:13;4.60;;;3.40;;
53775;SDS011;44276;49.534;6.378;2022-08-19T11:38:42;4.80;;;3.75;;
53775;SDS011;44276;49.534;6.378;2022-08-19T11:41:11;4.18;;;3.72;;
53775;SDS011;44276;49.534;6.378;2022-08-19T11:43:41;4.28;;;3.08;;
53775;SDS011;44276;49.534;6.378;2022-08-19T11:46:10;3.25;;;2.80;;
53775;SDS011;44276;49.534;6.378;2022-08-19T11:48:40;6.63;;;3.55;;
53775;SDS011;44276;49.534;6.378;2022-08-19T11:51:10;8.23;;;4.07;;
53775;SDS011;44276;49.534;6.378;2022-08-19T11:53:42;3.83;;;3.30;;
53775;SDS011;44276;49.534;6.378;2022-08-19T11:56:10;4.53;;;3.20;;
53775;SDS011;44276;49.534;6.378;2022-08-19T11:58:40;6.25;;;3.35;;
53775;SDS011;44276;49.534;6.378;2022-08-19T12:01:09;5.15;;;3.42;;
53775;SDS011;44276;49.534;6.378;2022-08-19T12:03:41;3.20;;;2.90;;
53775;SDS011;44276;49.534;6.378;2022-08-19T12:06:12;3.17;;;2.38;;
53775;SDS011;44276;49.534;6.378;2022-08-19T12:08:45;2.47;;;2.28;;
53775;SDS011;44276;49.534;6.378;2022-08-19T12:11:14;3.70;;;2.50;;
53775;SDS011;44276;49.534;6.378;2022-08-19T12:13:43;3.08;;;2.28;;
53775;SDS011;44276;49.534;6.378;2022-08-19T12:16:13;4.25;;;2.65;;
53775;SDS011;44276;49.534;6.378;2022-08-19T12:18:44;3.38;;;2.58;;
53775;SDS011;44276;49.534;6.378;2022-08-19T12:21:14;3.75;;;2.22;;
53775;SDS011;44276;49.534;6.378;2022-08-19T12:23:47;5.78;;;2.70;;
53775;SDS011;44276;49.534;6.378;2022-08-19T12:26:21;2.95;;;2.15;;
53775;SDS011;44276;49.534;6.378;2022-08-19T12:28:51;2.28;;;1.88;;
53775;SDS011;44276;49.534;6.378;2022-08-19T12:31:20;3.03;;;2.60;;
53775;SDS011;44276;49.534;6.378;2022-08-19T12:33:48;3.28;;;2.70;;
53775;SDS011;44276;49.534;6.378;2022-08-19T12:36:18;2.83;;;2.38;;
53775;SDS011;44276;49.534;6.378;2022-08-19T12:38:48;3.90;;;3.15;;
53775;SDS011;44276;49.534;6.378;2022-08-19T12:41:16;2.60;;;2.40;;
53775;SDS011;44276;49.534;6.378;2022-08-19T12:43:47;1.80;;;1.52;;
53775;SDS011;44276;49.534;6.378;2022-08-19T12:46:19;1.10;;;0.85;;
53775;SDS011;44276;49.534;6.378;2022-08-19T12:48:48;1.77;;;1.67;;
53775;SDS011;44276;49.534;6.378;2022-08-19T12:51:20;1.92;;;1.52;;
53775;SDS011;44276;49.534;6.378;2022-08-19T12:53:48;2.25;;;2.03;;
53775;SDS011;44276;49.534;6.378;2022-08-19T12:56:17;3.65;;;1.92;;
53775;SDS011;44276;49.534;6.378;2022-08-19T12:58:48;2.65;;;1.95;;
53775;SDS011;44276;49.534;6.378;2022-08-19T13:01:19;3.72;;;1.98;;
53775;SDS011;44276;49.534;6.378;2022-08-19T13:03:49;3.20;;;2.35;;
53775;SDS011;44276;49.534;6.378;2022-08-19T13:06:19;2.70;;;2.50;;
53775;SDS011;44276;49.534;6.378;2022-08-19T13:08:47;3.15;;;2.35;;
53775;SDS011;44276;49.534;6.378;2022-08-19T13:11:16;3.25;;;2.95;;
53775;SDS011;44276;49.534;6.378;2022-08-19T13:13:48;5.13;;;3.67;;
53775;SDS011;44276;49.534;6.378;2022-08-19T13:16:17;3.85;;;3.45;;
53775;SDS011;44276;49.534;6.378;2022-08-19T13:18:48;6.60;;;3.53;;
53775;SDS011;44276;49.534;6.378;2022-08-19T13:21:18;4.75;;;3.85;;
53775;SDS011;44276;49.534;6.378;2022-08-19T13:23:49;7.40;;;4.70;;
53775;SDS011;44276;49.534;6.378;2022-08-19T13:26:18;7.20;;;4.28;;
53775;SDS011;44276;49.534;6.378;2022-08-19T13:28:47;4.45;;;3.47;;
53775;SDS011;44276;49.534;6.378;2022-08-19T13:31:36;4.60;;;4.15;;
53775;SDS011;44276;49.534;6.378;2022-08-19T13:34:28;8.50;;;4.45;;
53775;SDS011;44276;49.534;6.378;2022-08-19T13:36:59;6.65;;;4.57;;
53775;SDS011;44276;49.534;6.378;2022-08-19T13:39:29;5.10;;;4.55;;
53775;SDS011;44276;49.534;6.378;2022-08-19T13:41:58;5.45;;;4.57;;
53775;SDS011;44276;49.534;6.378;2022-08-19T13:44:28;5.38;;;4.38;;
53775;SDS011;44276;49.534;6.378;2022-08-19T13:47:02;7.60;;;4.07;;
53775;SDS011;44276;49.534;6.378;2022-08-19T13:49:34;7.38;;;3.67;;
53775;SDS011;44276;49.534;6.378;2022-08-19T13:52:03;4.68;;;4.00;;
53775;SDS011;44276;49.534;6.378;2022-08-19T13:54:32;4.45;;;3.40;;
53775;SDS011;44276;49.534;6.378;2022-08-19T13:57:00;5.15;;;3.70;;
53775;SDS011;44276;49.534;6.378;2022-08-19T13:59:29;7.32;;;3.30;;
53775;SDS011;44276;49.534;6.378;2022-08-19T14:01:58;4.68;;;3.72;;
53775;SDS011;44276;49.534;6.378;2022-08-19T14:04:32;5.22;;;3.88;;
53775;SDS011;44276;49.534;6.378;2022-08-19T14:07:00;6.03;;;3.78;;
53775;SDS011;44276;49.534;6.378;2022-08-19T14:09:29;4.50;;;3.10;;
53775;SDS011;44276;49.534;6.378;2022-08-19T14:11:58;4.60;;;3.45;;
53775;SDS011;44276;49.534;6.378;2022-08-19T14:14:26;5.35;;;3.28;;
53775;SDS011;44276;49.534;6.378;2022-08-19T14:16:55;6.03;;;3.42;;
53775;SDS011;44276;49.534;6.378;2022-08-19T14:19:24;3.05;;;2.75;;
53775;SDS011;44276;49.534;6.378;2022-08-19T14:21:55;4.72;;;2.55;;
53775;SDS011;44276;49.534;6.378;2022-08-19T14:24:24;3.92;;;2.53;;
53775;SDS011;44276;49.534;6.378;2022-08-19T14:26:52;3.25;;;2.95;;
53775;SDS011;44276;49.534;6.378;2022-08-19T14:29:20;2.42;;;1.77;;
53775;SDS011;44276;49.534;6.378;2022-08-19T14:31:48;2.95;;;1.80;;
53775;SDS011;44276;49.534;6.378;2022-08-19T14:34:17;2.15;;;1.88;;
53775;SDS011;44276;49.534;6.378;2022-08-19T14:36:46;2.50;;;1.83;;
53775;SDS011;44276;49.534;6.378;2022-08-19T14:39:15;1.60;;;1.40;;
53775;SDS011;44276;49.534;6.378;2022-08-19T14:41:43;1.25;;;1.15;;
53775;SDS011;44276;49.534;6.378;2022-08-19T14:44:11;1.67;;;1.13;;
53775;SDS011;44276;49.534;6.378;2022-08-19T14:46:40;2.00;;;1.25;;
53775;SDS011;44276;49.534;6.378;2022-08-19T14:49:14;1.98;;;1.15;;
53775;SDS011;44276;49.534;6.378;2022-08-19T14:51:44;1.20;;;1.10;;
53775;SDS011;44276;49.534;6.378;2022-08-19T14:54:14;1.77;;;0.75;;
53775;SDS011;44276;49.534;6.378;2022-08-19T14:56:42;1.42;;;0.50;;
53775;SDS011;44276;49.534;6.378;2022-08-19T14:59:11;3.30;;;1.27;;
53775;SDS011;44276;49.534;6.378;2022-08-19T15:01:39;0.80;;;0.52;;
53775;SDS011;44276;49.534;6.378;2022-08-19T15:04:07;7.07;;;1.05;;
53775;SDS011;44276;49.534;6.378;2022-08-19T15:06:36;2.95;;;1.10;;
53775;SDS011;44276;49.534;6.378;2022-08-19T15:09:04;1.33;;;1.23;;